createdAt,value
2024-05-09T00:01:55.430Z,63.10
2024-05-09T00:06:57.176Z,64.23
2024-05-09T00:12:01.868Z,63.88
2024-05-09T00:17:03.744Z,63.18
2024-05-09T00:22:05.612Z,63.15
2024-05-09T00:27:12.697Z,63.17
2024-05-09T00:32:15.077Z,63.19
2024-05-09T00:37:17.226Z,63.85
2024-05-09T00:42:21.744Z,62.86
2024-05-09T00:47:24.656Z,62.34
2024-05-09T00:52:26.735Z,64.49
2024-05-09T00:57:31.607Z,64.47
2024-05-09T01:02:33.646Z,65.84
2024-05-09T01:07:35.607Z,65.49
2024-05-09T01:12:40.072Z,66.67
2024-05-09T01:17:42.109Z,66.08
2024-05-09T01:22:44.239Z,64.48
2024-05-09T01:27:48.763Z,65.20
2024-05-09T01:32:50.765Z,65.41
2024-05-09T01:37:52.972Z,64.44
2024-05-09T01:42:57.417Z,64.85
2024-05-09T01:47:59.291Z,64.81
2024-05-09T01:53:01.432Z,64.93
2024-05-09T01:58:06.181Z,64.67
2024-05-09T02:03:08.766Z,64.71
2024-05-09T02:08:11.500Z,63.36
2024-05-09T02:13:16.632Z,64.70
2024-05-09T02:18:18.797Z,63.19
2024-05-09T02:23:20.954Z,63.54
2024-05-09T02:28:27.358Z,63.71
2024-05-09T02:33:29.310Z,62.33
2024-05-09T02:38:31.570Z,62.82
2024-05-09T02:43:36.142Z,63.09
2024-05-09T02:48:38.102Z,61.84
2024-05-09T02:53:40.102Z,63.31
2024-05-09T02:58:44.604Z,62.96
2024-05-09T03:03:50.883Z,63.23
2024-05-09T03:08:52.774Z,63.77
2024-05-09T03:13:59.033Z,63.95
2024-05-09T03:19:00.887Z,62.53
2024-05-09T03:24:02.624Z,62.59
2024-05-09T03:29:07.015Z,62.58
2024-05-09T03:34:08.894Z,62.26
2024-05-09T03:39:12.986Z,61.16
2024-05-09T03:44:17.506Z,61.40
2024-05-09T03:49:19.616Z,60.27
2024-05-09T03:54:22.314Z,60.19
2024-05-09T03:59:26.990Z,60.06
2024-05-09T04:04:28.400Z,62.87
2024-05-09T04:09:30.984Z,59.89
2024-05-09T04:14:36.549Z,59.19
2024-05-09T04:19:39.593Z,58.75
2024-05-09T04:24:41.684Z,59.05
2024-05-09T04:29:46.657Z,59.29
2024-05-09T04:34:48.526Z,58.68
2024-05-09T04:39:50.652Z,58.10
2024-05-09T04:44:58.273Z,59.12
2024-05-09T04:50:00.488Z,57.89
2024-05-09T04:55:03.732Z,57.28
2024-05-09T05:00:14.952Z,57.04
2024-05-09T05:05:23.457Z,57.64
2024-05-09T05:10:33.220Z,56.96
2024-05-09T05:15:41.396Z,57.40
2024-05-09T05:20:43.705Z,55.27
2024-05-09T05:25:53.028Z,55.47
2024-05-09T05:30:57.835Z,55.62
2024-05-09T05:35:59.440Z,55.42
2024-05-09T05:41:01.588Z,54.96
2024-05-09T05:46:06.136Z,53.35
2024-05-09T05:51:08.267Z,52.63
2024-05-09T05:56:10.445Z,52.13
2024-05-09T06:01:14.945Z,52.74
2024-05-09T06:06:17.690Z,52.92
2024-05-09T06:11:19.795Z,52.60
2024-05-09T06:16:24.352Z,52.12
2024-05-09T06:21:26.210Z,52.08
2024-05-09T06:26:27.909Z,50.51
2024-05-09T06:31:32.407Z,50.70
2024-05-09T06:36:34.119Z,51.36
2024-05-09T06:41:36.795Z,52.62
2024-05-09T06:46:42.424Z,50.04
2024-05-09T06:51:44.558Z,51.17
2024-05-09T06:56:46.336Z,51.74
2024-05-09T07:01:50.755Z,50.11
2024-05-09T07:06:52.623Z,50.12
2024-05-09T07:11:54.733Z,50.58
2024-05-09T07:16:59.558Z,50.96
2024-05-09T07:27:29.775Z,51.87
2024-05-09T07:32:34.744Z,50.01
2024-05-09T07:37:36.730Z,51.31
2024-05-09T07:42:38.947Z,52.04
2024-05-09T07:49:13.632Z,49.41
2024-05-09T07:53:37.128Z,50.83
2024-05-09T07:58:33.254Z,48.03
2024-05-09T08:03:41.036Z,44.74
2024-05-09T08:08:42.962Z,47.77
2024-05-09T08:13:48.269Z,46.68
2024-05-09T08:18:52.942Z,45.54
2024-05-09T08:23:54.880Z,50.19
2024-05-09T08:28:56.626Z,50.39
2024-05-09T08:34:01.274Z,45.84
2024-05-09T08:39:03.160Z,49.74
2024-05-09T08:44:06.455Z,50.18
2024-05-09T08:49:11.046Z,33.12
2024-05-09T08:54:13.032Z,50.09
2024-05-09T08:59:21.023Z,43.91
2024-05-09T09:04:27.338Z,43.44
2024-05-09T09:09:31.169Z,48.69
2024-05-09T09:14:32.974Z,47.26
2024-05-09T09:19:40.676Z,45.54
2024-05-09T09:24:43.353Z,52.47
2024-05-09T09:29:45.164Z,54.90
2024-05-09T09:34:51.935Z,42.14
2024-05-09T09:39:54.741Z,54.19
2024-05-09T09:45:04.416Z,52.66
2024-05-09T09:50:14.549Z,42.41
2024-05-09T09:55:19.246Z,53.19
2024-05-09T10:00:27.073Z,52.21
2024-05-09T10:05:38.482Z,50.88
2024-05-09T10:10:45.472Z,54.91
2024-05-09T10:16:10.666Z,43.19
2024-05-09T10:21:34.251Z,38.15
2024-05-09T10:26:37.120Z,51.34
2024-05-09T10:31:42.695Z,47.53
2024-05-09T10:36:48.788Z,44.87
2024-05-09T10:41:54.263Z,51.20
2024-05-09T10:46:57.063Z,50.84
2024-05-09T10:52:01.644Z,49.31
2024-05-09T10:57:03.505Z,53.48
2024-05-09T11:02:08.202Z,52.94
2024-05-09T11:07:16.250Z,48.31
2024-05-09T11:12:20.032Z,54.15
2024-05-09T11:17:23.269Z,53.67
2024-05-09T11:22:27.852Z,48.55
2024-05-09T11:27:29.737Z,53.56
2024-05-09T11:32:33.335Z,52.34
2024-05-09T11:37:43.062Z,48.59
2024-05-09T11:42:48.236Z,53.63
2024-05-09T11:47:52.629Z,53.86
2024-05-09T11:52:57.232Z,48.43
2024-05-09T11:58:03.710Z,53.93
2024-05-09T12:03:05.977Z,52.87
2024-05-09T12:08:11.652Z,49.42
2024-05-09T12:13:23.356Z,51.88
2024-05-09T12:18:25.255Z,54.01
2024-05-09T12:23:29.684Z,50.59
2024-05-09T12:28:31.577Z,52.66
2024-05-09T12:33:33.441Z,52.35
2024-05-09T12:38:37.972Z,49.35
2024-05-09T12:43:39.889Z,52.80
2024-05-09T12:48:42.217Z,52.11
2024-05-09T12:53:46.754Z,51.44
2024-05-09T12:58:48.561Z,51.92
2024-05-09T13:03:50.613Z,51.60
2024-05-09T13:08:55.150Z,52.09
2024-05-09T13:13:56.925Z,54.75
2024-05-09T13:18:58.813Z,52.67
2024-05-09T13:24:03.389Z,53.04
2024-05-09T13:29:05.236Z,54.36
2024-05-09T13:34:07.106Z,55.24
2024-05-09T13:39:14.200Z,52.72
2024-05-09T13:44:16.085Z,55.26
2024-05-09T13:49:18.460Z,55.51
2024-05-09T13:54:23.070Z,54.29
2024-05-09T13:59:24.833Z,56.10
2024-05-09T14:04:27.029Z,56.65
2024-05-09T14:09:31.954Z,55.98
2024-05-09T14:14:33.793Z,55.82
2024-05-09T14:19:35.558Z,54.88
2024-05-09T14:24:40.085Z,55.21
2024-05-09T14:29:41.846Z,56.04
2024-05-09T14:34:43.657Z,55.36
2024-05-09T14:39:48.723Z,55.66
2024-05-09T14:44:50.724Z,55.70
2024-05-09T14:49:53.339Z,55.15
2024-05-09T14:55:00.735Z,53.86
2024-05-09T15:00:05.043Z,55.61
2024-05-09T15:05:07.397Z,51.94
2024-05-09T15:10:20.339Z,53.92
2024-05-09T15:15:25.686Z,55.71
2024-05-09T15:20:33.995Z,55.84
2024-05-09T15:25:40.712Z,53.70
2024-05-09T15:30:46.121Z,56.24
2024-05-09T15:35:48.797Z,56.31
2024-05-09T15:40:53.272Z,55.50
2024-05-09T15:45:55.223Z,56.67
2024-05-09T15:50:57.416Z,56.71
2024-05-09T15:56:02.045Z,57.28
2024-05-09T16:01:03.992Z,57.49
2024-05-09T16:06:06.005Z,57.49
2024-05-09T16:11:10.727Z,58.49
2024-05-09T16:16:12.909Z,58.22
2024-05-09T16:21:14.805Z,58.17
2024-05-09T16:26:19.303Z,58.55
2024-05-09T16:31:21.058Z,59.37
2024-05-09T16:36:23.002Z,60.77
2024-05-09T16:41:27.440Z,60.48
2024-05-09T16:46:29.432Z,61.00
2024-05-09T16:51:33.636Z,61.38
2024-05-09T16:56:38.230Z,62.24
2024-05-09T17:01:40.153Z,62.33
2024-05-09T17:06:42.182Z,63.76
2024-05-09T17:11:46.936Z,64.89
2024-05-09T17:18:01.150Z,69.18
2024-05-09T17:23:03.200Z,63.78
2024-05-09T17:28:08.611Z,64.79
2024-05-09T17:33:12.726Z,65.72
2024-05-09T17:38:15.355Z,64.96
2024-05-09T17:43:20.079Z,67.47
2024-05-09T17:48:22.862Z,68.16
2024-05-09T17:53:24.999Z,68.36
2024-05-09T17:58:30.041Z,70.44
2024-05-09T18:03:32.156Z,70.21
2024-05-09T18:08:33.975Z,70.29
2024-05-09T18:13:38.609Z,70.49
2024-05-09T18:18:40.825Z,69.87
2024-05-09T18:23:42.931Z,71.63
2024-05-09T18:28:47.616Z,72.33
2024-05-09T18:33:49.697Z,69.52
2024-05-09T18:38:52.408Z,70.29
2024-05-09T18:43:57.537Z,72.43
2024-05-09T19:27:05.401Z,77.01
2024-05-09T19:32:07.409Z,74.90
2024-05-09T19:37:09.371Z,75.40
2024-05-09T19:42:14.030Z,75.13
2024-05-09T19:47:16.164Z,75.95
2024-05-09T19:52:19.046Z,73.80
2024-05-09T19:57:23.577Z,77.31
2024-05-09T20:02:25.836Z,73.96
2024-05-09T20:07:27.644Z,73.73
2024-05-09T20:12:32.126Z,75.53
2024-05-09T20:17:34.131Z,74.58
2024-05-09T20:22:35.969Z,73.58
2024-05-09T20:27:40.614Z,75.11
2024-05-09T20:32:42.473Z,75.29
2024-05-09T20:37:44.299Z,74.32
2024-05-09T20:42:48.823Z,75.71
2024-05-09T20:47:50.605Z,76.00
2024-05-09T20:52:52.405Z,75.63
2024-05-09T20:57:57.057Z,76.49
2024-05-09T21:02:59.128Z,74.63
2024-05-09T21:08:01.478Z,74.49
2024-05-09T21:13:07.006Z,75.93
2024-05-09T21:18:09.778Z,74.65
2024-05-09T21:23:11.718Z,75.31
2024-05-09T21:28:16.704Z,74.73
2024-05-09T21:33:18.707Z,73.27
2024-05-09T21:38:20.701Z,74.05
2024-05-09T21:43:27.131Z,74.59
2024-05-09T21:48:28.952Z,73.45
2024-05-09T21:53:30.669Z,73.42
2024-05-09T21:58:35.090Z,73.64
2024-05-09T22:03:36.985Z,73.54
2024-05-09T22:08:38.791Z,72.90
2024-05-09T22:13:43.345Z,74.23
2024-05-09T22:18:45.336Z,72.87
2024-05-09T22:23:47.418Z,73.25
2024-05-09T22:28:52.236Z,73.59
2024-05-09T22:33:54.417Z,72.58
2024-05-09T22:38:56.520Z,73.04
2024-05-09T22:44:02.246Z,74.48
2024-05-09T22:49:04.426Z,72.36
2024-05-09T22:54:08.130Z,72.93
2024-05-09T22:59:12.643Z,74.05
2024-05-09T23:04:14.053Z,81.15
2024-05-09T23:09:16.094Z,74.29
2024-05-09T23:14:20.542Z,72.93
2024-05-09T23:19:21.904Z,81.28
2024-05-09T23:24:23.654Z,73.95
2024-05-09T23:29:28.401Z,73.56
2024-05-09T23:34:30.145Z,72.89
2024-05-09T23:39:32.028Z,73.05
2024-05-09T23:44:36.951Z,73.28
2024-05-09T23:49:38.789Z,73.17
2024-05-09T23:54:40.701Z,72.96
2024-05-09T23:59:45.263Z,73.31
